sensor_id;sensor_type;location;lat;lon;timestamp;P1;durP1;ratioP1;P2;durP2;ratioP2
30613;SDS011;17381;51.690;5.270;2023-05-07T00:00:46;5.78;;;3.72;;
30613;SDS011;17381;51.690;5.270;2023-05-07T00:03:35;6.85;;;3.85;;
30613;SDS011;17381;51.690;5.270;2023-05-07T00:06:46;6.68;;;3.88;;
30613;SDS011;17381;51.690;5.270;2023-05-07T00:12:20;5.22;;;3.10;;
30613;SDS011;17381;51.690;5.270;2023-05-07T00:15:14;4.13;;;2.70;;
30613;SDS011;17381;51.690;5.270;2023-05-07T00:17:58;4.65;;;2.67;;
30613;SDS011;17381;51.690;5.270;2023-05-07T00:20:24;5.18;;;3.40;;
30613;SDS011;17381;51.690;5.270;2023-05-07T00:23:10;5.30;;;3.15;;
30613;SDS011;17381;51.690;5.270;2023-05-07T00:25:55;6.85;;;3.33;;
30613;SDS011;17381;51.690;5.270;2023-05-07T00:28:31;6.20;;;3.20;;
30613;SDS011;17381;51.690;5.270;2023-05-07T00:31:34;5.80;;;3.15;;
30613;SDS011;17381;51.690;5.270;2023-05-07T00:34:38;7.22;;;2.80;;
30613;SDS011;17381;51.690;5.270;2023-05-07T00:37:41;3.95;;;2.38;;
30613;SDS011;17381;51.690;5.270;2023-05-07T00:40:35;4.75;;;3.10;;
30613;SDS011;17381;51.690;5.270;2023-05-07T00:43:32;3.80;;;2.55;;
30613;SDS011;17381;51.690;5.270;2023-05-07T00:46:26;4.18;;;2.50;;
30613;SDS011;17381;51.690;5.270;2023-05-07T00:49:23;5.72;;;2.97;;
30613;SDS011;17381;51.690;5.270;2023-05-07T00:52:19;4.25;;;2.90;;
30613;SDS011;17381;51.690;5.270;2023-05-07T00:55:02;5.00;;;3.00;;
30613;SDS011;17381;51.690;5.270;2023-05-07T00:57:46;5.40;;;3.30;;
30613;SDS011;17381;51.690;5.270;2023-05-07T01:00:21;6.97;;;3.75;;
30613;SDS011;17381;51.690;5.270;2023-05-07T01:03:19;6.22;;;3.25;;
30613;SDS011;17381;51.690;5.270;2023-05-07T01:06:14;5.82;;;3.40;;
30613;SDS011;17381;51.690;5.270;2023-05-07T01:08:48;5.30;;;3.28;;
30613;SDS011;17381;51.690;5.270;2023-05-07T01:11:30;6.72;;;3.45;;
30613;SDS011;17381;51.690;5.270;2023-05-07T01:14:13;5.13;;;3.20;;
30613;SDS011;17381;51.690;5.270;2023-05-07T01:16:40;4.90;;;3.22;;
30613;SDS011;17381;51.690;5.270;2023-05-07T01:19:26;4.82;;;3.10;;
30613;SDS011;17381;51.690;5.270;2023-05-07T01:22:32;5.68;;;3.63;;
30613;SDS011;17381;51.690;5.270;2023-05-07T01:25:09;5.38;;;3.10;;
30613;SDS011;17381;51.690;5.270;2023-05-07T01:28:02;4.95;;;3.40;;
30613;SDS011;17381;51.690;5.270;2023-05-07T01:30:54;4.78;;;3.22;;
30613;SDS011;17381;51.690;5.270;2023-05-07T01:33:34;4.97;;;2.88;;
30613;SDS011;17381;51.690;5.270;2023-05-07T01:36:17;5.93;;;3.35;;
30613;SDS011;17381;51.690;5.270;2023-05-07T01:38:57;6.97;;;3.58;;
30613;SDS011;17381;51.690;5.270;2023-05-07T01:41:33;12.05;;;4.60;;
30613;SDS011;17381;51.690;5.270;2023-05-07T01:44:33;6.15;;;3.85;;
30613;SDS011;17381;51.690;5.270;2023-05-07T01:47:17;5.88;;;3.60;;
30613;SDS011;17381;51.690;5.270;2023-05-07T01:50:07;7.00;;;4.22;;
30613;SDS011;17381;51.690;5.270;2023-05-07T01:53:04;6.72;;;3.80;;
30613;SDS011;17381;51.690;5.270;2023-05-07T01:55:49;5.88;;;3.20;;
30613;SDS011;17381;51.690;5.270;2023-05-07T01:58:38;7.18;;;3.95;;
30613;SDS011;17381;51.690;5.270;2023-05-07T02:03:57;6.13;;;3.53;;
30613;SDS011;17381;51.690;5.270;2023-05-07T02:06:46;7.00;;;4.10;;
30613;SDS011;17381;51.690;5.270;2023-05-07T02:09:28;7.53;;;4.30;;
30613;SDS011;17381;51.690;5.270;2023-05-07T02:12:04;6.22;;;3.67;;
30613;SDS011;17381;51.690;5.270;2023-05-07T02:14:48;7.43;;;4.55;;
30613;SDS011;17381;51.690;5.270;2023-05-07T02:17:25;6.90;;;4.50;;
30613;SDS011;17381;51.690;5.270;2023-05-07T02:20:09;6.72;;;4.25;;
30613;SDS011;17381;51.690;5.270;2023-05-07T02:22:47;10.60;;;4.95;;
30613;SDS011;17381;51.690;5.270;2023-05-07T02:25:25;7.55;;;4.53;;
30613;SDS011;17381;51.690;5.270;2023-05-07T02:28:06;6.38;;;4.75;;
30613;SDS011;17381;51.690;5.270;2023-05-07T02:31:12;8.55;;;6.00;;
30613;SDS011;17381;51.690;5.270;2023-05-07T02:34:08;8.30;;;5.03;;
30613;SDS011;17381;51.690;5.270;2023-05-07T02:36:49;8.00;;;5.38;;
30613;SDS011;17381;51.690;5.270;2023-05-07T02:39:18;7.47;;;5.38;;
30613;SDS011;17381;51.690;5.270;2023-05-07T02:42:01;7.78;;;5.40;;
30613;SDS011;17381;51.690;5.270;2023-05-07T02:44:33;9.55;;;6.30;;
30613;SDS011;17381;51.690;5.270;2023-05-07T02:47:25;10.03;;;6.27;;
30613;SDS011;17381;51.690;5.270;2023-05-07T02:50:03;10.52;;;6.78;;
30613;SDS011;17381;51.690;5.270;2023-05-07T02:52:46;10.75;;;7.55;;
30613;SDS011;17381;51.690;5.270;2023-05-07T02:55:17;11.23;;;7.47;;
30613;SDS011;17381;51.690;5.270;2023-05-07T02:57:43;9.48;;;6.43;;
30613;SDS011;17381;51.690;5.270;2023-05-07T03:00:38;9.10;;;6.80;;
30613;SDS011;17381;51.690;5.270;2023-05-07T03:03:20;9.10;;;6.00;;
30613;SDS011;17381;51.690;5.270;2023-05-07T03:05:52;8.85;;;6.32;;
30613;SDS011;17381;51.690;5.270;2023-05-07T03:08:39;7.50;;;5.25;;
30613;SDS011;17381;51.690;5.270;2023-05-07T03:11:11;7.70;;;5.38;;
30613;SDS011;17381;51.690;5.270;2023-05-07T03:13:44;8.07;;;5.45;;
30613;SDS011;17381;51.690;5.270;2023-05-07T03:16:20;8.20;;;5.53;;
30613;SDS011;17381;51.690;5.270;2023-05-07T03:19:21;8.25;;;6.35;;
30613;SDS011;17381;51.690;5.270;2023-05-07T03:22:06;8.35;;;5.50;;
30613;SDS011;17381;51.690;5.270;2023-05-07T03:24:32;9.48;;;6.35;;
30613;SDS011;17381;51.690;5.270;2023-05-07T03:27:04;9.02;;;6.35;;
30613;SDS011;17381;51.690;5.270;2023-05-07T03:29:49;8.20;;;5.53;;
30613;SDS011;17381;51.690;5.270;2023-05-07T03:32:27;8.48;;;6.13;;
30613;SDS011;17381;51.690;5.270;2023-05-07T03:35:10;8.48;;;5.95;;
30613;SDS011;17381;51.690;5.270;2023-05-07T03:37:45;8.30;;;6.22;;
30613;SDS011;17381;51.690;5.270;2023-05-07T03:40:33;8.45;;;6.15;;
30613;SDS011;17381;51.690;5.270;2023-05-07T03:43:06;8.43;;;5.57;;
30613;SDS011;17381;51.690;5.270;2023-05-07T03:45:45;8.55;;;5.97;;
30613;SDS011;17381;51.690;5.270;2023-05-07T03:48:34;8.05;;;5.82;;
30613;SDS011;17381;51.690;5.270;2023-05-07T03:51:18;7.95;;;6.20;;
30613;SDS011;17381;51.690;5.270;2023-05-07T03:54:04;7.70;;;5.88;;
30613;SDS011;17381;51.690;5.270;2023-05-07T03:56:31;10.10;;;6.85;;
30613;SDS011;17381;51.690;5.270;2023-05-07T03:59:04;9.50;;;7.15;;
30613;SDS011;17381;51.690;5.270;2023-05-07T04:01:47;10.05;;;6.97;;
30613;SDS011;17381;51.690;5.270;2023-05-07T04:04:33;10.73;;;7.60;;
30613;SDS011;17381;51.690;5.270;2023-05-07T04:06:59;10.70;;;7.28;;
30613;SDS011;17381;51.690;5.270;2023-05-07T04:09:47;10.18;;;7.38;;
30613;SDS011;17381;51.690;5.270;2023-05-07T04:12:43;9.02;;;6.57;;
30613;SDS011;17381;51.690;5.270;2023-05-07T04:15:48;12.05;;;7.70;;
30613;SDS011;17381;51.690;5.270;2023-05-07T04:18:59;10.20;;;7.25;;
30613;SDS011;17381;51.690;5.270;2023-05-07T04:21:39;8.70;;;6.63;;
30613;SDS011;17381;51.690;5.270;2023-05-07T04:24:16;10.70;;;7.13;;
30613;SDS011;17381;51.690;5.270;2023-05-07T04:26:54;9.80;;;7.32;;
30613;SDS011;17381;51.690;5.270;2023-05-07T04:29:20;10.80;;;7.68;;
30613;SDS011;17381;51.690;5.270;2023-05-07T04:31:55;9.30;;;7.18;;
30613;SDS011;17381;51.690;5.270;2023-05-07T04:34:27;10.95;;;8.02;;
30613;SDS011;17381;51.690;5.270;2023-05-07T04:36:57;9.50;;;6.60;;
30613;SDS011;17381;51.690;5.270;2023-05-07T04:39:44;9.23;;;6.88;;
30613;SDS011;17381;51.690;5.270;2023-05-07T04:42:20;9.75;;;6.47;;
30613;SDS011;17381;51.690;5.270;2023-05-07T04:45:00;9.75;;;7.03;;
30613;SDS011;17381;51.690;5.270;2023-05-07T04:47:44;11.05;;;8.07;;
30613;SDS011;17381;51.690;5.270;2023-05-07T04:50:24;10.93;;;8.40;;
30613;SDS011;17381;51.690;5.270;2023-05-07T04:53:01;9.90;;;7.07;;
30613;SDS011;17381;51.690;5.270;2023-05-07T04:55:59;9.50;;;7.80;;
30613;SDS011;17381;51.690;5.270;2023-05-07T04:58:36;10.18;;;7.85;;
30613;SDS011;17381;51.690;5.270;2023-05-07T05:01:14;11.63;;;8.38;;
30613;SDS011;17381;51.690;5.270;2023-05-07T05:03:49;11.32;;;8.00;;
30613;SDS011;17381;51.690;5.270;2023-05-07T05:06:28;9.82;;;7.55;;
30613;SDS011;17381;51.690;5.270;2023-05-07T05:08:57;11.98;;;8.07;;
30613;SDS011;17381;51.690;5.270;2023-05-07T05:11:29;12.75;;;8.93;;
30613;SDS011;17381;51.690;5.270;2023-05-07T05:14:07;12.20;;;8.85;;
30613;SDS011;17381;51.690;5.270;2023-05-07T05:16:39;11.23;;;8.18;;
30613;SDS011;17381;51.690;5.270;2023-05-07T05:19:39;10.93;;;8.27;;
30613;SDS011;17381;51.690;5.270;2023-05-07T05:22:25;12.55;;;9.40;;
30613;SDS011;17381;51.690;5.270;2023-05-07T05:27:53;11.68;;;8.48;;
30613;SDS011;17381;51.690;5.270;2023-05-07T05:30:26;12.55;;;9.10;;
30613;SDS011;17381;51.690;5.270;2023-05-07T05:33:14;13.55;;;9.93;;
30613;SDS011;17381;51.690;5.270;2023-05-07T05:36:12;12.65;;;9.60;;
30613;SDS011;17381;51.690;5.270;2023-05-07T05:39:19;14.73;;;11.32;;
30613;SDS011;17381;51.690;5.270;2023-05-07T05:42:11;12.75;;;9.25;;
30613;SDS011;17381;51.690;5.270;2023-05-07T05:44:54;13.25;;;10.20;;
30613;SDS011;17381;51.690;5.270;2023-05-07T05:47:50;15.60;;;10.80;;
30613;SDS011;17381;51.690;5.270;2023-05-07T05:50:35;12.60;;;9.93;;
30613;SDS011;17381;51.690;5.270;2023-05-07T05:53:28;13.77;;;10.32;;
30613;SDS011;17381;51.690;5.270;2023-05-07T05:56:15;14.70;;;10.48;;
30613;SDS011;17381;51.690;5.270;2023-05-07T05:58:44;12.57;;;9.80;;
30613;SDS011;17381;51.690;5.270;2023-05-07T06:05:25;15.27;;;11.90;;
30613;SDS011;17381;51.690;5.270;2023-05-07T06:08:20;13.57;;;10.73;;
30613;SDS011;17381;51.690;5.270;2023-05-07T06:10:58;15.57;;;11.57;;
30613;SDS011;17381;51.690;5.270;2023-05-07T06:14:00;15.02;;;11.63;;
30613;SDS011;17381;51.690;5.270;2023-05-07T06:16:41;16.95;;;12.98;;
30613;SDS011;17381;51.690;5.270;2023-05-07T06:19:37;15.57;;;12.23;;
30613;SDS011;17381;51.690;5.270;2023-05-07T06:22:24;16.38;;;12.52;;
30613;SDS011;17381;51.690;5.270;2023-05-07T06:25:04;15.05;;;12.10;;
30613;SDS011;17381;51.690;5.270;2023-05-07T06:28:07;17.10;;;13.15;;
30613;SDS011;17381;51.690;5.270;2023-05-07T06:31:29;17.13;;;12.55;;
30613;SDS011;17381;51.690;5.270;2023-05-07T06:34:09;18.13;;;13.30;;
30613;SDS011;17381;51.690;5.270;2023-05-07T06:37:17;17.42;;;12.85;;
30613;SDS011;17381;51.690;5.270;2023-05-07T06:40:09;14.30;;;11.57;;
30613;SDS011;17381;51.690;5.270;2023-05-07T06:42:53;14.73;;;11.35;;
30613;SDS011;17381;51.690;5.270;2023-05-07T06:45:52;14.68;;;11.55;;
30613;SDS011;17381;51.690;5.270;2023-05-07T06:48:39;18.00;;;12.68;;
30613;SDS011;17381;51.690;5.270;2023-05-07T06:51:30;17.98;;;13.20;;
30613;SDS011;17381;51.690;5.270;2023-05-07T06:54:25;16.17;;;12.35;;
30613;SDS011;17381;51.690;5.270;2023-05-07T06:57:13;17.27;;;13.30;;
30613;SDS011;17381;51.690;5.270;2023-05-07T07:00:24;18.83;;;14.50;;
30613;SDS011;17381;51.690;5.270;2023-05-07T07:03:15;20.60;;;15.43;;
30613;SDS011;17381;51.690;5.270;2023-05-07T07:06:18;18.42;;;14.65;;
30613;SDS011;17381;51.690;5.270;2023-05-07T07:08:56;18.77;;;14.32;;
30613;SDS011;17381;51.690;5.270;2023-05-07T07:11:43;16.30;;;12.95;;
30613;SDS011;17381;51.690;5.270;2023-05-07T07:14:35;15.93;;;11.65;;
30613;SDS011;17381;51.690;5.270;2023-05-07T07:17:24;17.10;;;13.48;;
30613;SDS011;17381;51.690;5.270;2023-05-07T07:20:34;14.80;;;11.77;;
30613;SDS011;17381;51.690;5.270;2023-05-07T07:23:30;20.27;;;13.40;;
30613;SDS011;17381;51.690;5.270;2023-05-07T07:26:14;15.70;;;11.93;;
30613;SDS011;17381;51.690;5.270;2023-05-07T07:29:09;16.08;;;12.77;;
30613;SDS011;17381;51.690;5.270;2023-05-07T07:32:07;16.75;;;13.38;;
30613;SDS011;17381;51.690;5.270;2023-05-07T07:34:56;15.82;;;13.63;;
30613;SDS011;17381;51.690;5.270;2023-05-07T07:40:47;18.42;;;13.18;;
30613;SDS011;17381;51.690;5.270;2023-05-07T07:43:40;19.70;;;14.70;;
30613;SDS011;17381;51.690;5.270;2023-05-07T07:46:26;14.98;;;11.77;;
30613;SDS011;17381;51.690;5.270;2023-05-07T07:49:12;16.48;;;11.93;;
30613;SDS011;17381;51.690;5.270;2023-05-07T07:52:14;17.00;;;13.10;;
30613;SDS011;17381;51.690;5.270;2023-05-07T07:54:57;16.02;;;12.20;;
30613;SDS011;17381;51.690;5.270;2023-05-07T07:57:46;17.17;;;12.63;;
30613;SDS011;17381;51.690;5.270;2023-05-07T08:00:40;14.95;;;11.25;;
30613;SDS011;17381;51.690;5.270;2023-05-07T08:03:31;15.63;;;11.02;;
30613;SDS011;17381;51.690;5.270;2023-05-07T08:06:26;19.25;;;12.75;;
30613;SDS011;17381;51.690;5.270;2023-05-07T08:09:31;16.70;;;13.02;;
30613;SDS011;17381;51.690;5.270;2023-05-07T08:12:15;15.15;;;11.88;;
30613;SDS011;17381;51.690;5.270;2023-05-07T08:14:56;16.48;;;10.88;;
30613;SDS011;17381;51.690;5.270;2023-05-07T08:17:40;16.10;;;12.53;;
30613;SDS011;17381;51.690;5.270;2023-05-07T08:20:34;16.45;;;11.73;;
30613;SDS011;17381;51.690;5.270;2023-05-07T08:23:28;17.30;;;13.93;;
30613;SDS011;17381;51.690;5.270;2023-05-07T08:26:11;16.10;;;11.68;;
30613;SDS011;17381;51.690;5.270;2023-05-07T08:28:40;15.18;;;11.45;;
30613;SDS011;17381;51.690;5.270;2023-05-07T08:31:52;14.32;;;11.02;;
30613;SDS011;17381;51.690;5.270;2023-05-07T08:34:38;15.77;;;11.60;;
30613;SDS011;17381;51.690;5.270;2023-05-07T08:37:30;17.23;;;12.45;;
30613;SDS011;17381;51.690;5.270;2023-05-07T08:40:17;14.43;;;10.23;;
30613;SDS011;17381;51.690;5.270;2023-05-07T08:43:19;11.57;;;8.77;;
30613;SDS011;17381;51.690;5.270;2023-05-07T08:46:21;14.82;;;11.30;;
30613;SDS011;17381;51.690;5.270;2023-05-07T08:49:21;14.90;;;12.25;;
30613;SDS011;17381;51.690;5.270;2023-05-07T08:52:12;15.63;;;11.05;;
30613;SDS011;17381;51.690;5.270;2023-05-07T08:55:07;12.18;;;8.93;;
30613;SDS011;17381;51.690;5.270;2023-05-07T08:57:53;10.82;;;8.13;;
30613;SDS011;17381;51.690;5.270;2023-05-07T09:00:40;13.60;;;8.45;;
30613;SDS011;17381;51.690;5.270;2023-05-07T09:03:27;12.35;;;9.77;;
30613;SDS011;17381;51.690;5.270;2023-05-07T09:06:21;11.65;;;8.45;;
30613;SDS011;17381;51.690;5.270;2023-05-07T09:12:05;12.10;;;8.85;;
30613;SDS011;17381;51.690;5.270;2023-05-07T09:14:57;11.40;;;8.73;;
30613;SDS011;17381;51.690;5.270;2023-05-07T09:27:19;8.98;;;6.85;;
30613;SDS011;17381;51.690;5.270;2023-05-07T09:39:18;11.85;;;7.97;;
30613;SDS011;17381;51.690;5.270;2023-05-07T09:53:56;13.50;;;9.43;;
30613;SDS011;17381;51.690;5.270;2023-05-07T09:56:48;14.82;;;8.40;;
30613;SDS011;17381;51.690;5.270;2023-05-07T09:59:46;13.05;;;8.93;;
30613;SDS011;17381;51.690;5.270;2023-05-07T10:02:25;12.55;;;8.65;;
30613;SDS011;17381;51.690;5.270;2023-05-07T10:05:12;12.48;;;8.52;;
30613;SDS011;17381;51.690;5.270;2023-05-07T10:08:05;10.50;;;7.90;;
30613;SDS011;17381;51.690;5.270;2023-05-07T10:11:10;8.20;;;5.95;;
30613;SDS011;17381;51.690;5.270;2023-05-07T10:13:56;8.85;;;6.75;;
30613;SDS011;17381;51.690;5.270;2023-05-07T10:16:28;10.52;;;7.05;;
30613;SDS011;17381;51.690;5.270;2023-05-07T10:19:29;11.13;;;8.13;;
30613;SDS011;17381;51.690;5.270;2023-05-07T10:22:17;10.55;;;7.90;;
30613;SDS011;17381;51.690;5.270;2023-05-07T10:24:52;10.52;;;8.00;;
30613;SDS011;17381;51.690;5.270;2023-05-07T10:27:27;9.85;;;7.05;;
30613;SDS011;17381;51.690;5.270;2023-05-07T10:30:12;9.18;;;6.82;;
30613;SDS011;17381;51.690;5.270;2023-05-07T10:36:30;10.80;;;7.30;;
30613;SDS011;17381;51.690;5.270;2023-05-07T10:39:23;10.88;;;7.20;;
30613;SDS011;17381;51.690;5.270;2023-05-07T10:42:19;8.85;;;6.50;;
30613;SDS011;17381;51.690;5.270;2023-05-07T10:44:59;9.23;;;6.55;;
30613;SDS011;17381;51.690;5.270;2023-05-07T10:52:22;8.80;;;6.32;;
30613;SDS011;17381;51.690;5.270;2023-05-07T10:55:21;7.28;;;5.55;;
30613;SDS011;17381;51.690;5.270;2023-05-07T10:58:33;7.53;;;5.50;;
30613;SDS011;17381;51.690;5.270;2023-05-07T11:04:37;8.43;;;6.30;;
30613;SDS011;17381;51.690;5.270;2023-05-07T11:07:29;9.30;;;6.32;;
30613;SDS011;17381;51.690;5.270;2023-05-07T11:10:20;9.85;;;7.07;;
30613;SDS011;17381;51.690;5.270;2023-05-07T11:13:13;8.15;;;5.80;;
30613;SDS011;17381;51.690;5.270;2023-05-07T11:16:34;8.10;;;5.70;;
30613;SDS011;17381;51.690;5.270;2023-05-07T11:19:47;9.52;;;5.38;;
30613;SDS011;17381;51.690;5.270;2023-05-07T11:23:12;9.35;;;6.35;;
30613;SDS011;17381;51.690;5.270;2023-05-07T11:26:49;7.68;;;5.05;;
30613;SDS011;17381;51.690;5.270;2023-05-07T11:29:46;10.85;;;6.43;;
30613;SDS011;17381;51.690;5.270;2023-05-07T11:32:37;9.77;;;6.82;;
30613;SDS011;17381;51.690;5.270;2023-05-07T11:35:35;8.02;;;5.30;;
30613;SDS011;17381;51.690;5.270;2023-05-07T11:38:26;9.50;;;6.55;;
30613;SDS011;17381;51.690;5.270;2023-05-07T11:41:21;11.30;;;6.13;;
30613;SDS011;17381;51.690;5.270;2023-05-07T11:44:23;7.65;;;5.03;;
30613;SDS011;17381;51.690;5.270;2023-05-07T11:47:21;7.03;;;4.88;;
30613;SDS011;17381;51.690;5.270;2023-05-07T11:49:53;6.45;;;4.75;;
30613;SDS011;17381;51.690;5.270;2023-05-07T11:52:49;7.45;;;4.60;;
30613;SDS011;17381;51.690;5.270;2023-05-07T11:55:44;8.77;;;5.18;;
30613;SDS011;17381;51.690;5.270;2023-05-07T11:58:52;7.38;;;5.68;;
30613;SDS011;17381;51.690;5.270;2023-05-07T12:01:38;7.97;;;5.40;;
30613;SDS011;17381;51.690;5.270;2023-05-07T12:04:34;8.60;;;5.43;;
30613;SDS011;17381;51.690;5.270;2023-05-07T12:07:32;6.97;;;5.07;;
30613;SDS011;17381;51.690;5.270;2023-05-07T12:10:44;7.90;;;4.93;;
30613;SDS011;17381;51.690;5.270;2023-05-07T12:13:49;8.98;;;6.00;;
30613;SDS011;17381;51.690;5.270;2023-05-07T12:16:18;6.68;;;5.18;;
30613;SDS011;17381;51.690;5.270;2023-05-07T12:18:48;7.55;;;5.80;;
30613;SDS011;17381;51.690;5.270;2023-05-07T12:21:32;6.88;;;4.25;;
30613;SDS011;17381;51.690;5.270;2023-05-07T12:24:24;7.05;;;4.78;;
30613;SDS011;17381;51.690;5.270;2023-05-07T12:27:32;8.77;;;5.00;;
30613;SDS011;17381;51.690;5.270;2023-05-07T12:30:17;8.55;;;5.30;;
30613;SDS011;17381;51.690;5.270;2023-05-07T12:33:04;8.55;;;5.07;;
30613;SDS011;17381;51.690;5.270;2023-05-07T12:35:54;8.13;;;5.25;;
30613;SDS011;17381;51.690;5.270;2023-05-07T12:38:44;10.18;;;7.07;;
30613;SDS011;17381;51.690;5.270;2023-05-07T12:41:27;8.55;;;6.60;;
30613;SDS011;17381;51.690;5.270;2023-05-07T12:44:04;7.80;;;5.60;;
30613;SDS011;17381;51.690;5.270;2023-05-07T12:46:50;8.25;;;6.28;;
30613;SDS011;17381;51.690;5.270;2023-05-07T12:49:59;10.00;;;6.07;;
30613;SDS011;17381;51.690;5.270;2023-05-07T12:52:35;9.20;;;6.32;;
30613;SDS011;17381;51.690;5.270;2023-05-07T12:55:46;9.80;;;6.18;;
30613;SDS011;17381;51.690;5.270;2023-05-07T12:58:56;8.30;;;5.43;;
30613;SDS011;17381;51.690;5.270;2023-05-07T13:01:41;7.88;;;4.57;;
30613;SDS011;17381;51.690;5.270;2023-05-07T13:04:30;7.13;;;4.32;;
30613;SDS011;17381;51.690;5.270;2023-05-07T13:07:28;7.30;;;5.20;;
30613;SDS011;17381;51.690;5.270;2023-05-07T13:10:01;6.60;;;4.47;;
30613;SDS011;17381;51.690;5.270;2023-05-07T13:12:50;10.10;;;6.30;;
30613;SDS011;17381;51.690;5.270;2023-05-07T13:15:47;6.90;;;4.72;;
30613;SDS011;17381;51.690;5.270;2023-05-07T13:18:41;7.68;;;5.40;;
30613;SDS011;17381;51.690;5.270;2023-05-07T13:21:27;8.77;;;5.15;;
30613;SDS011;17381;51.690;5.270;2023-05-07T13:24:16;6.35;;;4.22;;
30613;SDS011;17381;51.690;5.270;2023-05-07T13:27:06;8.07;;;5.32;;
30613;SDS011;17381;51.690;5.270;2023-05-07T13:29:58;6.72;;;4.70;;
30613;SDS011;17381;51.690;5.270;2023-05-07T13:32:33;5.22;;;3.78;;
30613;SDS011;17381;51.690;5.270;2023-05-07T13:35:20;5.72;;;3.70;;
30613;SDS011;17381;51.690;5.270;2023-05-07T13:38:04;6.97;;;4.38;;
30613;SDS011;17381;51.690;5.270;2023-05-07T13:41:20;6.38;;;3.97;;
30613;SDS011;17381;51.690;5.270;2023-05-07T13:44:44;7.63;;;4.97;;
30613;SDS011;17381;51.690;5.270;2023-05-07T13:47:33;6.45;;;4.78;;
30613;SDS011;17381;51.690;5.270;2023-05-07T13:54:15;6.70;;;4.20;;
30613;SDS011;17381;51.690;5.270;2023-05-07T13:56:44;6.00;;;4.22;;
30613;SDS011;17381;51.690;5.270;2023-05-07T13:59:30;7.85;;;5.53;;
30613;SDS011;17381;51.690;5.270;2023-05-07T14:02:35;8.93;;;5.47;;
30613;SDS011;17381;51.690;5.270;2023-05-07T14:05:22;9.82;;;6.60;;
30613;SDS011;17381;51.690;5.270;2023-05-07T14:08:11;9.90;;;6.75;;
30613;SDS011;17381;51.690;5.270;2023-05-07T14:11:00;9.38;;;6.32;;
30613;SDS011;17381;51.690;5.270;2023-05-07T14:14:08;8.73;;;6.22;;
30613;SDS011;17381;51.690;5.270;2023-05-07T14:16:57;9.00;;;5.50;;
30613;SDS011;17381;51.690;5.270;2023-05-07T14:19:46;7.05;;;5.30;;
30613;SDS011;17381;51.690;5.270;2023-05-07T14:22:42;8.07;;;5.13;;
30613;SDS011;17381;51.690;5.270;2023-05-07T14:25:35;7.93;;;6.00;;
30613;SDS011;17381;51.690;5.270;2023-05-07T14:28:39;8.57;;;5.50;;
30613;SDS011;17381;51.690;5.270;2023-05-07T14:31:34;7.93;;;5.18;;
30613;SDS011;17381;51.690;5.270;2023-05-07T14:34:08;8.18;;;6.07;;
30613;SDS011;17381;51.690;5.270;2023-05-07T14:36:46;9.13;;;6.22;;
30613;SDS011;17381;51.690;5.270;2023-05-07T14:39:35;9.27;;;6.68;;
30613;SDS011;17381;51.690;5.270;2023-05-07T14:42:39;11.27;;;6.93;;
30613;SDS011;17381;51.690;5.270;2023-05-07T14:45:28;8.90;;;6.72;;
30613;SDS011;17381;51.690;5.270;2023-05-07T14:48:17;9.48;;;7.22;;
30613;SDS011;17381;51.690;5.270;2023-05-07T14:51:06;10.05;;;7.30;;
30613;SDS011;17381;51.690;5.270;2023-05-07T14:53:51;8.68;;;6.05;;
30613;SDS011;17381;51.690;5.270;2023-05-07T14:56:28;7.90;;;5.03;;
30613;SDS011;17381;51.690;5.270;2023-05-07T14:59:13;5.55;;;3.28;;
30613;SDS011;17381;51.690;5.270;2023-05-07T15:02:05;4.15;;;2.50;;
30613;SDS011;17381;51.690;5.270;2023-05-07T15:04:50;4.45;;;2.53;;
30613;SDS011;17381;51.690;5.270;2023-05-07T15:07:31;6.38;;;2.50;;
30613;SDS011;17381;51.690;5.270;2023-05-07T15:10:20;3.92;;;2.45;;
30613;SDS011;17381;51.690;5.270;2023-05-07T15:13:14;3.63;;;2.17;;
30613;SDS011;17381;51.690;5.270;2023-05-07T15:16:14;5.22;;;2.40;;
30613;SDS011;17381;51.690;5.270;2023-05-07T15:19:27;4.00;;;2.63;;
30613;SDS011;17381;51.690;5.270;2023-05-07T15:22:14;4.38;;;2.75;;
30613;SDS011;17381;51.690;5.270;2023-05-07T15:25:31;4.15;;;2.70;;
30613;SDS011;17381;51.690;5.270;2023-05-07T15:28:21;5.28;;;3.03;;
30613;SDS011;17381;51.690;5.270;2023-05-07T15:30:53;5.88;;;3.38;;
30613;SDS011;17381;51.690;5.270;2023-05-07T15:33:41;4.80;;;3.03;;
30613;SDS011;17381;51.690;5.270;2023-05-07T15:36:21;4.90;;;2.90;;
30613;SDS011;17381;51.690;5.270;2023-05-07T15:38:59;4.15;;;2.38;;
30613;SDS011;17381;51.690;5.270;2023-05-07T15:45:01;5.03;;;2.00;;
30613;SDS011;17381;51.690;5.270;2023-05-07T15:50:58;3.78;;;1.73;;
30613;SDS011;17381;51.690;5.270;2023-05-07T15:53:43;3.42;;;1.63;;
30613;SDS011;17381;51.690;5.270;2023-05-07T15:56:54;2.85;;;1.48;;
30613;SDS011;17381;51.690;5.270;2023-05-07T15:59:51;3.25;;;1.58;;
30613;SDS011;17381;51.690;5.270;2023-05-07T16:02:57;3.85;;;1.55;;
30613;SDS011;17381;51.690;5.270;2023-05-07T16:05:48;2.40;;;1.42;;
30613;SDS011;17381;51.690;5.270;2023-05-07T16:08:35;3.10;;;1.92;;
30613;SDS011;17381;51.690;5.270;2023-05-07T16:11:39;3.05;;;1.80;;
30613;SDS011;17381;51.690;5.270;2023-05-07T16:14:30;4.80;;;2.40;;
30613;SDS011;17381;51.690;5.270;2023-05-07T16:17:25;3.10;;;1.70;;
30613;SDS011;17381;51.690;5.270;2023-05-07T16:20:27;3.22;;;1.83;;
30613;SDS011;17381;51.690;5.270;2023-05-07T16:23:42;3.97;;;1.48;;
30613;SDS011;17381;51.690;5.270;2023-05-07T16:26:39;2.30;;;1.20;;
30613;SDS011;17381;51.690;5.270;2023-05-07T16:29:25;2.22;;;1.20;;
30613;SDS011;17381;51.690;5.270;2023-05-07T16:32:11;2.53;;;1.10;;
30613;SDS011;17381;51.690;5.270;2023-05-07T16:35:00;3.28;;;1.30;;
30613;SDS011;17381;51.690;5.270;2023-05-07T16:37:38;2.67;;;1.20;;
30613;SDS011;17381;51.690;5.270;2023-05-07T16:40:31;2.65;;;1.17;;
30613;SDS011;17381;51.690;5.270;2023-05-07T16:43:15;2.85;;;1.38;;
30613;SDS011;17381;51.690;5.270;2023-05-07T16:46:28;2.38;;;1.30;;
30613;SDS011;17381;51.690;5.270;2023-05-07T16:49:20;4.07;;;1.40;;
30613;SDS011;17381;51.690;5.270;2023-05-07T16:52:15;3.97;;;1.65;;
30613;SDS011;17381;51.690;5.270;2023-05-07T16:55:17;4.25;;;2.03;;
30613;SDS011;17381;51.690;5.270;2023-05-07T16:58:06;4.43;;;2.30;;
30613;SDS011;17381;51.690;5.270;2023-05-07T17:12:18;4.10;;;2.30;;
30613;SDS011;17381;51.690;5.270;2023-05-07T17:15:46;5.93;;;2.45;;
30613;SDS011;17381;51.690;5.270;2023-05-07T17:19:06;3.17;;;1.80;;
30613;SDS011;17381;51.690;5.270;2023-05-07T17:22:02;3.28;;;1.83;;
30613;SDS011;17381;51.690;5.270;2023-05-07T17:25:24;5.50;;;2.15;;
30613;SDS011;17381;51.690;5.270;2023-05-07T17:28:08;5.75;;;2.42;;
30613;SDS011;17381;51.690;5.270;2023-05-07T17:30:40;4.80;;;2.17;;
30613;SDS011;17381;51.690;5.270;2023-05-07T17:33:28;4.00;;;2.20;;
30613;SDS011;17381;51.690;5.270;2023-05-07T17:36:10;5.15;;;2.58;;
30613;SDS011;17381;51.690;5.270;2023-05-07T17:41:46;2.92;;;1.88;;
30613;SDS011;17381;51.690;5.270;2023-05-07T17:47:38;4.13;;;1.80;;
30613;SDS011;17381;51.690;5.270;2023-05-07T17:50:19;3.60;;;1.98;;
30613;SDS011;17381;51.690;5.270;2023-05-07T17:53:15;3.50;;;1.85;;
30613;SDS011;17381;51.690;5.270;2023-05-07T17:59:15;2.75;;;1.45;;
30613;SDS011;17381;51.690;5.270;2023-05-07T19:56:46;3.90;;;2.28;;
30613;SDS011;17381;51.690;5.270;2023-05-07T22:09:59;5.93;;;4.23;;
30613;SDS011;17381;51.690;5.270;2023-05-07T22:20:33;5.65;;;4.20;;
30613;SDS011;17381;51.690;5.270;2023-05-07T22:23:45;5.80;;;4.22;;
